createdAt,value
2022-08-03T00:00:57.161Z,16.91
2022-08-03T00:06:04.825Z,16.88
2022-08-03T00:11:08.807Z,16.88
2022-08-03T00:16:16.267Z,16.88
2022-08-03T00:21:20.044Z,16.81
2022-08-03T00:26:24.407Z,16.77
2022-08-03T00:31:45.773Z,16.70
2022-08-03T00:36:51.846Z,16.57
2022-08-03T00:41:55.462Z,16.46
2022-08-03T00:46:59.095Z,16.41
2022-08-03T00:52:09.665Z,16.31
2022-08-03T00:57:13.850Z,16.25
2022-08-03T01:02:18.022Z,16.22
2022-08-03T01:07:37.296Z,16.21
2022-08-03T01:12:48.835Z,16.23
2022-08-03T01:17:59.839Z,16.20
2022-08-03T01:23:39.473Z,16.14
2022-08-03T01:29:01.705Z,16.16
2022-08-03T01:34:14.627Z,16.13
2022-08-03T01:39:21.388Z,16.02
2022-08-03T01:44:28.981Z,15.89
2022-08-03T01:49:38.770Z,15.80
2022-08-03T01:54:45.400Z,15.73
2022-08-03T01:59:50.557Z,15.75
2022-08-03T02:04:56.469Z,15.71
2022-08-03T02:10:02.724Z,15.63
2022-08-03T02:15:09.495Z,15.59
2022-08-03T02:20:14.633Z,15.53
2022-08-03T02:25:18.671Z,15.50
2022-08-03T02:30:25.224Z,15.51
2022-08-03T02:35:32.768Z,15.48
2022-08-03T02:40:38.541Z,15.45
2022-08-03T02:45:46.949Z,15.47
2022-08-03T02:50:54.220Z,15.48
2022-08-03T02:55:59.553Z,15.48
2022-08-03T03:01:03.744Z,15.42
2022-08-03T03:06:10.081Z,15.35
2022-08-03T03:11:17.501Z,15.29
2022-08-03T03:16:22.478Z,15.22
2022-08-03T03:21:27.799Z,15.16
2022-08-03T03:26:31.625Z,15.11
2022-08-03T03:31:36.694Z,15.08
2022-08-03T03:36:40.512Z,15.06
2022-08-03T03:41:44.549Z,15.04
2022-08-03T03:46:48.318Z,14.97
2022-08-03T03:51:54.914Z,14.96
2022-08-03T03:56:58.525Z,15.01
2022-08-03T04:02:02.122Z,15.07
2022-08-03T04:07:24.560Z,15.12
2022-08-03T04:12:30.746Z,15.22
2022-08-03T04:17:35.502Z,15.35
2022-08-03T04:22:41.554Z,15.45
2022-08-03T04:28:07.761Z,15.51
2022-08-03T04:33:11.385Z,15.56
2022-08-03T04:38:19.887Z,15.61
2022-08-03T04:43:22.887Z,15.71
2022-08-03T04:48:27.649Z,15.83
2022-08-03T04:53:32.171Z,15.93
2022-08-03T04:58:35.834Z,16.01
2022-08-03T05:03:40.032Z,16.11
2022-08-03T05:08:46.857Z,16.22
2022-08-03T05:13:52.597Z,16.36
2022-08-03T05:18:56.217Z,16.51
2022-08-03T05:23:59.740Z,16.68
2022-08-03T05:29:03.468Z,16.84
2022-08-03T05:34:08.115Z,17.03
2022-08-03T05:39:11.688Z,17.22
2022-08-03T05:44:16.192Z,17.46
2022-08-03T05:49:22.296Z,17.69
2022-08-03T05:54:26.202Z,17.90
2022-08-03T05:59:53.848Z,18.15
2022-08-03T06:05:03.208Z,18.32
2022-08-03T06:10:36.328Z,18.38
2022-08-03T06:15:33.078Z,18.52
2022-08-03T06:20:36.808Z,18.64
2022-08-03T06:25:41.452Z,18.81
2022-08-03T06:30:45.276Z,19.00
2022-08-03T06:35:49.219Z,19.19
2022-08-03T06:40:52.840Z,19.37
2022-08-03T06:45:56.452Z,19.54
2022-08-03T06:51:00.078Z,19.67
2022-08-03T06:56:05.592Z,19.76
2022-08-03T07:01:09.307Z,19.84
2022-08-03T07:06:13.705Z,19.91
2022-08-03T07:11:18.340Z,20.01
2022-08-03T07:16:24.233Z,20.13
2022-08-03T07:21:28.029Z,20.25
2022-08-03T07:26:31.783Z,20.36
2022-08-03T07:31:35.351Z,20.43
2022-08-03T07:36:39.379Z,20.47
2022-08-03T07:41:43.372Z,20.53
2022-08-03T07:46:47.444Z,20.62
2022-08-03T07:52:11.338Z,20.76
2022-08-03T07:57:15.136Z,20.96
2022-08-03T08:02:19.252Z,21.15
2022-08-03T08:07:25.570Z,21.31
2022-08-03T08:12:29.575Z,21.50
2022-08-03T08:17:42.575Z,21.75
2022-08-03T08:22:46.348Z,21.99
2022-08-03T08:28:29.830Z,22.23
2022-08-03T08:33:23.481Z,22.60
2022-08-03T08:38:27.878Z,22.92
2022-08-03T08:43:31.850Z,23.09
2022-08-03T08:48:40.785Z,23.15
2022-08-03T08:53:49.375Z,23.06
2022-08-03T08:58:58.122Z,23.01
2022-08-03T09:04:02.454Z,23.04
2022-08-03T09:09:08.462Z,23.19
2022-08-03T09:14:33.691Z,23.44
2022-08-03T09:19:37.477Z,23.58
2022-08-03T09:25:21.634Z,23.68
2022-08-03T09:30:34.057Z,23.89
2022-08-03T09:35:59.008Z,24.07
2022-08-03T09:41:02.977Z,24.02
2022-08-03T09:46:07.103Z,23.84
2022-08-03T09:51:13.551Z,23.73
2022-08-03T09:56:44.850Z,23.91
2022-08-03T10:01:48.935Z,24.05
2022-08-03T10:07:08.823Z,24.03
2022-08-03T10:12:14.243Z,24.06
2022-08-03T10:17:18.203Z,23.99
2022-08-03T10:22:23.386Z,24.03
2022-08-03T10:27:32.124Z,24.11
2022-08-03T10:32:40.658Z,24.21
2022-08-03T10:37:57.021Z,24.31
2022-08-03T10:43:08.592Z,24.44
2022-08-03T10:48:13.283Z,24.58
2022-08-03T10:53:33.834Z,24.69
2022-08-03T10:58:57.602Z,24.78
2022-08-03T11:04:18.921Z,24.88
2022-08-03T11:09:23.178Z,25.01
2022-08-03T11:14:27.540Z,25.13
2022-08-03T11:19:58.080Z,25.23
2022-08-03T11:25:02.604Z,25.30
2022-08-03T11:30:10.327Z,25.36
2022-08-03T11:35:15.848Z,25.44
2022-08-03T11:40:35.675Z,25.55
2022-08-03T11:45:56.088Z,25.69
2022-08-03T11:51:00.077Z,25.73
2022-08-03T11:56:04.629Z,25.75
2022-08-03T12:01:21.222Z,25.77
2022-08-03T12:06:26.699Z,25.82
2022-08-03T12:11:30.746Z,25.87
2022-08-03T12:16:34.708Z,25.90
2022-08-03T12:21:56.930Z,25.98
2022-08-03T12:27:01.238Z,26.09
2022-08-03T12:32:05.954Z,26.17
2022-08-03T12:37:22.234Z,26.26
2022-08-03T12:42:32.160Z,26.35
2022-08-03T12:47:51.630Z,26.40
2022-08-03T12:52:55.909Z,26.43
2022-08-03T12:58:00.163Z,26.38
2022-08-03T13:03:38.597Z,26.39
2022-08-03T13:08:30.812Z,26.46
2022-08-03T13:13:40.495Z,26.50
2022-08-03T13:18:46.156Z,26.53
2022-08-03T13:23:52.277Z,26.60
2022-08-03T13:28:56.365Z,26.63
2022-08-03T13:34:00.176Z,26.67
2022-08-03T13:39:04.029Z,26.69
2022-08-03T13:44:28.988Z,26.65
2022-08-03T13:49:33.219Z,26.65
2022-08-03T13:54:37.044Z,26.55
2022-08-03T13:59:40.815Z,26.48
2022-08-03T14:04:44.701Z,26.35
2022-08-03T14:09:48.257Z,26.21
2022-08-03T14:14:52.709Z,26.06
2022-08-03T14:19:56.643Z,25.91
2022-08-03T14:25:01.953Z,25.75
2022-08-03T14:30:10.522Z,25.61
2022-08-03T14:35:14.463Z,25.55
2022-08-03T14:40:18.587Z,25.45
2022-08-03T14:45:23.008Z,25.30
2022-08-03T14:50:37.901Z,25.18
2022-08-03T14:55:49.845Z,25.11
2022-08-03T15:00:56.920Z,25.05
2022-08-03T15:06:00.554Z,24.99
2022-08-03T15:11:04.768Z,24.97
2022-08-03T15:16:09.088Z,24.96
2022-08-03T15:21:16.613Z,24.96
2022-08-03T15:26:41.428Z,24.96
2022-08-03T15:31:45.590Z,24.96
2022-08-03T15:36:49.572Z,24.93
2022-08-03T15:41:53.506Z,24.87
2022-08-03T15:46:59.714Z,24.80
2022-08-03T15:52:03.970Z,24.80
2022-08-03T15:57:08.374Z,24.83
2022-08-03T16:02:12.505Z,24.89
2022-08-03T16:07:36.340Z,24.93
2022-08-03T16:12:41.342Z,24.98
2022-08-03T16:17:45.584Z,25.02
2022-08-03T16:22:49.922Z,25.06
2022-08-03T16:28:03.117Z,25.10
2022-08-03T16:33:17.027Z,25.11
2022-08-03T16:38:21.462Z,25.13
2022-08-03T16:43:25.601Z,25.15
2022-08-03T16:48:29.957Z,25.16
2022-08-03T16:54:07.815Z,25.17
2022-08-03T16:58:58.274Z,25.18
2022-08-03T17:04:04.598Z,25.19
2022-08-03T17:09:13.189Z,25.18
2022-08-03T17:14:21.932Z,25.19
2022-08-03T17:19:27.077Z,25.16
2022-08-03T17:24:34.484Z,25.13
2022-08-03T17:29:44.993Z,25.08
2022-08-03T17:34:49.333Z,25.04
2022-08-03T17:39:59.497Z,24.97
2022-08-03T17:45:06.602Z,24.89
2022-08-03T17:55:57.600Z,24.71
2022-08-03T18:02:05.617Z,24.61
2022-08-03T18:06:56.181Z,24.51
2022-08-03T18:12:04.536Z,24.41
2022-08-03T18:17:19.884Z,24.32
2022-08-03T18:22:25.566Z,24.21
2022-08-03T18:27:42.716Z,24.06
2022-08-03T18:33:00.444Z,23.89
2022-08-03T18:38:10.353Z,23.72
2022-08-03T18:43:17.084Z,23.58
2022-08-03T18:48:28.106Z,23.42
2022-08-03T18:54:03.289Z,23.25
2022-08-03T18:59:10.920Z,23.08
2022-08-03T19:04:24.375Z,22.91
2022-08-03T19:09:37.305Z,22.68
2022-08-03T19:14:49.417Z,22.47
2022-08-03T19:19:54.163Z,22.24
2022-08-03T19:25:02.815Z,22.02
2022-08-03T19:30:21.884Z,21.81
2022-08-03T19:35:52.159Z,21.57
2022-08-03T19:40:59.796Z,21.37
2022-08-03T19:46:10.961Z,21.23
2022-08-03T19:51:19.045Z,21.01
2022-08-03T19:56:34.297Z,20.80
2022-08-03T20:01:50.986Z,20.74
2022-08-03T20:06:57.161Z,20.73
2022-08-03T20:12:01.280Z,20.60
2022-08-03T20:17:06.105Z,20.44
2022-08-03T20:22:14.526Z,20.34
2022-08-03T20:27:22.369Z,20.27
2022-08-03T20:32:34.828Z,20.17
2022-08-03T20:37:38.783Z,20.10
2022-08-03T20:42:45.521Z,20.02
2022-08-03T20:47:51.065Z,19.94
2022-08-03T20:52:56.177Z,19.79
2022-08-03T20:58:00.599Z,19.62
2022-08-03T21:03:08.966Z,19.57
2022-08-03T21:08:16.141Z,19.53
2022-08-03T21:12:55.448Z,24.82
2022-08-03T21:13:30.008Z,19.50
2022-08-03T21:18:43.738Z,19.46
2022-08-03T21:23:50.772Z,19.42
2022-08-03T21:28:56.279Z,19.30
2022-08-03T21:34:02.088Z,19.20
2022-08-03T21:39:08.674Z,19.12
2022-08-03T21:44:12.502Z,19.07
2022-08-03T21:50:02.589Z,19.06
2022-08-03T21:54:42.990Z,18.96
2022-08-03T21:59:56.349Z,18.88
2022-08-03T22:05:04.958Z,18.87
2022-08-03T22:10:14.623Z,18.84
2022-08-03T22:15:18.446Z,18.79
2022-08-03T22:20:24.374Z,18.76
2022-08-03T22:25:31.073Z,18.69
2022-08-03T22:30:35.683Z,18.64
2022-08-03T22:35:47.264Z,18.55
2022-08-03T22:40:52.730Z,18.48
2022-08-03T22:46:09.363Z,18.47
2022-08-03T22:51:16.460Z,18.42
2022-08-03T22:56:20.281Z,18.29
2022-08-03T23:01:25.185Z,18.17
2022-08-03T23:06:34.510Z,18.10
2022-08-03T23:11:45.985Z,18.02
2022-08-03T23:16:54.951Z,17.91
2022-08-03T23:22:03.222Z,17.80
2022-08-03T23:27:09.745Z,17.74
2022-08-03T23:32:15.685Z,17.73
2022-08-03T23:37:21.420Z,17.77
2022-08-03T23:42:27.415Z,17.78
2022-08-03T23:47:45.943Z,17.73
2022-08-03T23:52:59.457Z,17.71
2022-08-03T23:58:15.046Z,17.71
